Time;durP1;ratioP1;P1;durP2;ratioP2;P2;SDS_P1;SDS_P2;PMS_P1;PMS_P2;Temp;Humidity;BMP_temperature;BMP_pressure;BME280_temperature;BME280_humidity;BME280_pressure;Samples;Min_cycle;Max_cycle;Signal;HPM_P1;HPM_P2
2022/10/02 00:02:08;;;;;;;18.13;2.60;;;;;;;14.03;100.00;101430.16;5117217;28;20359;-72
2022/10/02 00:04:53;;;;;;;22.13;3.38;;;;;;;14.04;100.00;101426.47;5116571;28;20077;-72
2022/10/02 00:07:25;;;;;;;14.85;2.40;;;;;;;14.05;100.00;101419.31;5115860;28;20110;-72
2022/10/02 00:09:55;;;;;;;22.60;2.92;;;;;;;14.03;100.00;101429.28;5116643;28;20027;-73
2022/10/02 00:12:25;;;;;;;17.48;3.05;;;;;;;14.04;100.00;101431.81;5116425;28;20235;-74
2022/10/02 00:14:55;;;;;;;19.90;3.25;;;;;;;14.08;100.00;101443.91;5116263;28;20046;-73
2022/10/02 00:17:26;;;;;;;19.50;2.88;;;;;;;14.10;100.00;101438.41;5115963;28;20035;-72
2022/10/02 00:19:54;;;;;;;18.08;4.03;;;;;;;14.02;100.00;101443.69;5116355;28;20463;-73
2022/10/02 00:22:26;;;;;;;18.13;2.78;;;;;;;13.95;100.00;101443.41;5115011;28;20126;-72
2022/10/02 00:25:01;;;;;;;14.82;2.58;;;;;;;13.91;100.00;101431.31;5116152;28;20039;-73
2022/10/02 00:27:51;;;;;;;20.38;3.10;;;;;;;13.95;100.00;101443.41;5116106;28;20035;-74
2022/10/02 00:30:17;;;;;;;15.55;3.15;;;;;;;13.98;100.00;101447.63;5116545;28;20069;-74
2022/10/02 00:33:18;;;;;;;16.98;2.80;;;;;;;14.02;100.00;101454.38;5116068;28;20059;-72
2022/10/02 00:36:02;;;;;;;12.30;2.80;;;;;;;14.07;100.00;101458.28;5115785;28;20477;-73
2022/10/02 00:38:46;;;;;;;21.90;3.10;;;;;;;14.18;100.00;101453.72;5116256;28;20024;-72
2022/10/02 00:41:49;;;;;;;22.05;3.92;;;;;;;14.20;100.00;101451.78;5116430;28;20027;-72
2022/10/02 00:44:39;;;;;;;17.17;2.92;;;;;;;14.23;100.00;101463.00;5115691;28;20080;-72
2022/10/02 00:47:14;;;;;;;16.90;2.83;;;;;;;14.23;100.00;101468.38;5116032;28;20028;-72
2022/10/02 00:50:17;;;;;;;24.58;3.65;;;;;;;14.25;100.00;101455.66;5114848;28;20031;-72
2022/10/02 00:53:05;;;;;;;18.73;3.08;;;;;;;14.24;100.00;101454.00;5115668;28;20030;-72
2022/10/02 00:55:45;;;;;;;19.85;3.80;;;;;;;14.25;100.00;101446.81;5116133;28;20024;-74
2022/10/02 00:58:16;;;;;;;17.02;2.55;;;;;;;14.23;100.00;101448.78;5116049;28;20027;-72
2022/10/02 01:00:49;;;;;;;18.83;3.28;;;;;;;14.16;100.00;101453.88;5115433;28;20039;-74
2022/10/02 01:03:23;;;;;;;20.50;2.97;;;;;;;14.06;100.00;101456.63;5115914;28;20028;-73
2022/10/02 01:05:49;;;;;;;15.27;2.90;;;;;;;13.98;100.00;101461.84;5115393;28;20059;-74
2022/10/02 01:08:15;;;;;;;20.92;2.65;;;;;;;13.93;100.00;101461.44;5115350;28;20062;-73
2022/10/02 01:10:41;;;;;;;24.40;3.53;;;;;;;13.88;100.00;101472.59;5116002;28;20092;-73
2022/10/02 01:13:07;;;;;;;20.27;3.35;;;;;;;13.89;100.00;101468.91;5114974;28;20023;-73
2022/10/02 01:15:36;;;;;;;18.17;2.90;;;;;;;13.96;100.00;101462.97;5115289;28;20468;-72
2022/10/02 01:18:02;;;;;;;21.77;3.45;;;;;;;14.01;100.00;101460.72;5115029;28;20421;-70
2022/10/02 01:20:32;;;;;;;22.90;3.75;;;;;;;14.03;100.00;101467.63;5114779;28;20039;-73
2022/10/02 01:23:23;;;;;;;16.48;2.90;;;;;;;14.03;100.00;101464.94;5115753;28;20054;-73
2022/10/02 01:25:49;;;;;;;18.40;3.75;;;;;;;14.04;100.00;101471.97;5106485;28;20065;-73
2022/10/02 01:28:15;;;;;;;16.70;2.50;;;;;;;14.01;100.00;101468.75;5113532;28;20032;-73
2022/10/02 01:30:44;;;;;;;23.15;4.45;;;;;;;14.01;100.00;101469.56;5115357;28;20035;-73
2022/10/02 01:33:12;;;;;;;18.83;2.83;;;;;;;13.99;100.00;101471.56;5115474;28;20085;-73
2022/10/02 01:35:38;;;;;;;17.52;2.50;;;;;;;13.98;100.00;101474.38;5113903;28;20061;-73
2022/10/02 01:38:10;;;;;;;24.73;3.53;;;;;;;13.92;100.00;101483.84;5115402;28;20031;-74
2022/10/02 01:40:37;;;;;;;20.52;3.10;;;;;;;13.85;100.00;101477.38;5114736;28;20051;-73
2022/10/02 01:43:08;;;;;;;18.27;3.17;;;;;;;13.75;100.00;101480.91;5114846;28;20034;-74
2022/10/02 01:46:06;;;;;;;21.47;3.33;;;;;;;13.66;100.00;101483.59;5114906;28;20031;-73
2022/10/02 01:48:59;;;;;;;22.70;3.65;;;;;;;13.58;100.00;101493.22;5114880;28;20019;-73
2022/10/02 01:51:50;;;;;;;11.77;2.92;;;;;;;13.56;100.00;101491.66;5114918;28;20032;-73
2022/10/02 01:54:49;;;;;;;18.85;3.10;;;;;;;13.55;100.00;101496.16;5114346;28;20028;-73
2022/10/02 01:57:46;;;;;;;16.13;2.50;;;;;;;13.56;100.00;101497.00;5114580;28;20023;-72
2022/10/02 02:00:18;;;;;;;18.08;2.70;;;;;;;13.55;100.00;101498.84;5115016;28;20476;-72
2022/10/02 02:02:53;;;;;;;14.77;2.85;;;;;;;13.56;100.00;101499.66;5112963;28;20485;-73
2022/10/02 02:05:46;;;;;;;25.08;3.20;;;;;;;13.53;100.00;101497.28;5114137;28;20036;-72
2022/10/02 02:08:32;;;;;;;20.80;3.80;;;;;;;13.48;100.00;101499.53;5113940;28;20038;-72
2022/10/02 02:11:03;;;;;;;15.30;3.28;;;;;;;13.48;100.00;101504.88;5114196;28;20074;-73
2022/10/02 02:13:41;;;;;;;;;;;;;;;13.46;100.00;101498.84;5114443;28;20020;-73
2022/10/02 02:16:40;;;;;;;17.95;3.00;;;;;;;13.50;100.00;101492.22;5114806;28;20283;-73
2022/10/02 02:19:19;;;;;;;21.90;3.30;;;;;;;13.54;100.00;101501.63;5114068;28;20048;-73
2022/10/02 02:21:51;;;;;;;18.70;2.60;;;;;;;13.52;100.00;101492.91;5114057;28;20105;-74
2022/10/02 02:24:24;;;;;;;20.15;2.95;;;;;;;13.51;100.00;101489.41;5113789;28;20081;-73
2022/10/02 02:26:54;;;;;;;12.52;2.75;;;;;;;13.52;100.00;101501.78;5113856;28;20023;-74
2022/10/02 02:29:21;;;;;;;19.58;3.33;;;;;;;13.55;100.00;101498.84;5113485;28;20027;-74
2022/10/02 02:31:50;;;;;;;18.75;3.70;;;;;;;13.58;100.00;101500.34;5114102;28;20077;-74
2022/10/02 02:34:21;;;;;;;19.23;3.03;;;;;;;13.61;100.00;101505.41;5113708;28;20032;-73
2022/10/02 02:36:51;;;;;;;15.50;2.85;;;;;;;13.65;100.00;101503.31;5113702;28;20357;-74
2022/10/02 02:39:46;;;;;;;26.15;3.38;;;;;;;13.63;100.00;101506.13;5112350;28;20028;-73
2022/10/02 02:42:14;;;;;;;19.50;2.88;;;;;;;13.64;100.00;101501.63;5112335;28;20028;-74
2022/10/02 02:44:46;;;;;;;14.15;2.60;;;;;;;13.65;100.00;101506.00;5113889;28;20055;-73
2022/10/02 02:47:25;;;;;;;15.52;2.30;;;;;;;13.60;100.00;101509.09;5113450;28;20024;-73
2022/10/02 02:50:10;;;;;;;17.60;2.97;;;;;;;13.56;100.00;101507.69;5114013;28;20068;-73
2022/10/02 02:52:42;;;;;;;21.10;3.03;;;;;;;13.49;100.00;101506.56;5113179;28;20038;-73
2022/10/02 02:55:41;;;;;;;15.15;2.38;;;;;;;13.37;100.00;101505.88;5113832;28;20024;-73
2022/10/02 02:58:15;;;;;;;12.00;2.58;;;;;;;13.30;100.00;101510.91;5113425;28;20161;-72
2022/10/02 03:00:41;;;;;;;11.07;2.70;;;;;;;13.27;100.00;101511.19;5113645;28;20054;-73
2022/10/02 03:03:06;;;;;;;16.58;2.30;;;;;;;13.26;100.00;101516.69;5112384;28;20455;-73
2022/10/02 03:05:34;;;;;;;13.98;3.05;;;;;;;13.18;100.00;101514.69;5113813;28;20092;-74
2022/10/02 03:08:08;;;;;;;26.77;3.47;;;;;;;13.16;100.00;101516.66;5113788;28;20054;-73
2022/10/02 03:10:53;;;;;;;17.27;2.58;;;;;;;13.20;100.00;101528.78;5113666;28;20030;-73
2022/10/02 03:13:43;;;;;;;15.32;2.63;;;;;;;13.08;100.00;101525.38;5115042;28;20365;-72
2022/10/02 03:16:20;;;;;;;9.90;2.20;;;;;;;12.80;100.00;101519.84;5117852;28;20024;-71
2022/10/02 03:19:13;;;;;;;13.90;1.92;;;;;;;12.59;100.00;101525.25;5117601;28;20060;-71
2022/10/02 03:22:03;;;;;;;13.27;2.00;;;;;;;12.46;100.00;101530.00;5115842;28;20401;-71
2022/10/02 03:24:40;;;;;;;13.63;1.92;;;;;;;12.37;100.00;101530.81;5117739;28;20035;-71
2022/10/02 03:27:23;;;;;;;16.77;2.28;;;;;;;12.30;100.00;101531.34;5117380;28;20420;-71
2022/10/02 03:30:01;;;;;;;12.10;2.08;;;;;;;12.24;100.00;101541.69;5117610;28;20027;-71
2022/10/02 03:32:28;;;;;;;14.15;2.10;;;;;;;12.16;100.00;101539.69;5116125;28;20031;-72
2022/10/02 03:34:56;;;;;;;12.73;2.65;;;;;;;12.10;100.00;101540.22;5117736;28;20028;-71
2022/10/02 03:37:23;;;;;;;14.15;2.40;;;;;;;12.07;100.00;101535.97;5117107;28;20329;-71
2022/10/02 03:39:50;;;;;;;12.25;2.85;;;;;;;12.05;100.00;101532.63;5117815;28;20043;-72
2022/10/02 03:42:29;;;;;;;13.88;2.30;;;;;;;12.02;100.00;101524.88;5117540;28;20040;-72
2022/10/02 03:44:55;;;;;;;10.70;2.40;;;;;;;12.01;100.00;101531.19;5117638;28;20024;-71
2022/10/02 03:47:20;;;;;;;17.23;2.97;;;;;;;12.01;100.00;101539.19;5117224;28;20043;-72
2022/10/02 03:49:45;;;;;;;14.35;2.17;;;;;;;12.03;100.00;101533.72;5116820;28;20043;-72
2022/10/02 03:52:21;;;;;;;12.02;2.45;;;;;;;12.08;100.00;101537.69;5116634;28;20475;-72
2022/10/02 03:54:50;;;;;;;12.88;2.20;;;;;;;12.12;100.00;101539.13;5116850;28;20483;-71
2022/10/02 03:57:24;;;;;;;17.67;2.47;;;;;;;12.16;100.00;101539.69;5116796;28;20038;-71
2022/10/02 03:59:58;;;;;;;17.85;2.28;;;;;;;12.16;100.00;101529.84;5116412;28;20115;-71
2022/10/02 04:02:48;;;;;;;13.57;2.25;;;;;;;12.15;100.00;101522.84;5116990;28;20076;-71
2022/10/02 04:05:25;;;;;;;15.48;2.47;;;;;;;12.19;100.00;101520.75;5116654;28;20442;-71
2022/10/02 04:07:59;;;;;;;12.15;2.15;;;;;;;12.18;100.00;101529.72;5116570;28;20023;-71
2022/10/02 04:10:35;;;;;;;15.43;2.50;;;;;;;12.17;100.00;101525.38;5116336;28;20036;-71
2022/10/02 04:13:15;;;;;;;12.05;2.03;;;;;;;12.17;100.00;101536.88;5116442;28;20034;-71
2022/10/02 04:15:50;;;;;;;13.50;2.50;;;;;;;12.13;100.00;101537.28;5116849;28;20036;-71
2022/10/02 04:18:30;;;;;;;17.13;2.40;;;;;;;12.07;100.00;101535.97;5116385;28;20039;-73
2022/10/02 04:21:14;;;;;;;17.15;2.50;;;;;;;12.08;100.00;101534.19;5117465;28;20034;-72
2022/10/02 04:23:52;;;;;;;15.05;2.42;;;;;;;12.15;100.00;101537.97;5115907;28;20055;-73
2022/10/02 04:26:26;;;;;;;16.33;2.28;;;;;;;12.19;100.00;101544.75;5116778;28;20027;-72
2022/10/02 04:28:58;;;;;;;11.70;2.70;;;;;;;12.25;100.00;101544.22;5116440;28;20035;-72
2022/10/02 04:31:26;;;;;;;9.60;2.80;;;;;;;12.30;100.00;101549.16;5116455;28;20512;-73
2022/10/02 04:33:52;;;;;;;11.00;2.40;;;;;;;12.33;100.00;101547.09;5116513;28;20047;-73
2022/10/02 04:36:40;;;;;;;17.58;2.30;;;;;;;12.40;100.00;101555.38;5116996;28;20043;-72
2022/10/02 04:39:28;;;;;;;15.77;2.42;;;;;;;12.43;100.00;101562.28;5119564;28;20365;-72
2022/10/02 04:42:17;;;;;;;10.82;2.28;;;;;;;12.40;100.00;101557.22;5115756;28;20036;-73
2022/10/02 04:45:17;;;;;;;13.70;2.30;;;;;;;12.28;100.00;101562.63;5116163;28;20039;-73
2022/10/02 04:48:13;;;;;;;14.15;2.40;;;;;;;12.20;100.00;101567.78;5115655;28;20064;-72
2022/10/02 04:51:15;;;;;;;15.45;2.13;;;;;;;12.15;100.00;101570.84;5115599;28;20034;-73
2022/10/02 04:54:16;;;;;;;15.40;2.30;;;;;;;12.10;100.00;101582.91;5116201;28;20047;-73
2022/10/02 04:57:21;;;;;;;14.68;2.58;;;;;;;12.05;100.00;101593.97;5096210;28;20422;-72
2022/10/02 04:59:56;;;;;;;9.75;2.42;;;;;;;12.04;100.00;101594.09;5115736;28;20023;-73
2022/10/02 05:02:40;;;;;;;11.70;2.65;;;;;;;12.01;100.00;101594.34;5115955;28;20399;-73
2022/10/02 05:05:37;;;;;;;14.27;2.80;;;;;;;12.02;100.00;101599.56;5115913;28;20068;-71
2022/10/02 05:08:42;;;;;;;14.00;2.05;;;;;;;12.06;100.00;101622.34;5111221;28;20051;-73
2022/10/02 05:11:15;;;;;;;14.00;3.00;;;;;;;12.08;100.00;101611.53;5115835;28;20417;-71
2022/10/02 05:13:46;;;;;;;15.32;2.17;;;;;;;12.06;100.00;101609.00;5115838;28;20028;-71
2022/10/02 05:16:27;;;;;;;15.98;2.70;;;;;;;12.04;100.00;101615.44;5115302;28;20082;-71
2022/10/02 05:19:05;;;;;;;11.40;1.98;;;;;;;12.01;100.00;101618.34;5115515;28;20038;-71
2022/10/02 05:21:49;;;;;;;7.80;1.70;;;;;;;12.02;100.00;101610.22;5115268;28;20032;-71
2022/10/02 05:24:29;;;;;;;12.82;2.03;;;;;;;12.08;100.00;101619.53;5115167;28;20047;-71
2022/10/02 05:27:00;;;;;;;15.07;2.40;;;;;;;12.12;100.00;101618.28;5114851;28;20035;-71
2022/10/02 05:29:56;;;;;;;15.23;2.35;;;;;;;12.21;100.00;101625.53;5115176;28;20088;-71
2022/10/02 05:32:43;;;;;;;12.05;2.55;;;;;;;12.26;100.00;101627.78;5114925;28;20027;-71
2022/10/02 05:35:25;;;;;;;9.30;2.00;;;;;;;12.26;100.00;101633.97;5114988;28;20039;-72
2022/10/02 05:38:36;;;;;;;17.80;2.78;;;;;;;12.23;100.00;101626.22;5114895;28;20038;-72
2022/10/02 05:41:16;;;;;;;14.82;2.25;;;;;;;12.22;100.00;101629.84;5090486;28;20044;-73
2022/10/02 05:44:01;;;;;;;19.50;2.92;;;;;;;12.22;100.00;101624.53;5114996;28;20035;-71
2022/10/02 05:46:50;;;;;;;14.07;2.67;;;;;;;12.26;100.00;101633.97;5114540;28;20031;-71
2022/10/02 05:49:59;;;;;;;17.27;2.33;;;;;;;12.31;100.00;101645.09;5113886;28;20047;-71
2022/10/02 05:52:40;;;;;;;9.82;2.17;;;;;;;12.34;100.00;101639.47;5107096;28;20035;-71
2022/10/02 05:55:21;;;;;;;12.48;1.90;;;;;;;12.40;100.00;101637.28;5114454;28;20032;-72
2022/10/02 05:58:13;;;;;;;12.55;2.13;;;;;;;12.40;100.00;101645.28;5114244;28;20063;-71
2022/10/02 06:00:42;;;;;;;;;;;;;;;12.39;100.00;101648.91;5115265;28;20097;-71
2022/10/02 06:03:18;;;;;;;11.75;2.13;;;;;;;12.39;100.00;101652.47;5114391;28;19912;-71
2022/10/02 06:06:20;;;;;;;12.20;2.92;;;;;;;12.37;100.00;101643.72;5114206;28;20067;-71
2022/10/02 06:08:52;;;;;;;12.27;2.50;;;;;;;12.33;100.00;101651.16;5061382;28;20373;-71
2022/10/02 06:12:04;;;;;;;12.85;2.20;;;;;;;12.31;100.00;101650.41;5114706;28;20035;-72
2022/10/02 06:14:45;;;;;;;14.93;2.35;;;;;;;12.29;100.00;101657.72;5072828;28;20038;-72
2022/10/02 06:17:49;;;;;;;14.80;2.50;;;;;;;12.29;100.00;101654.22;5114423;28;20023;-72
2022/10/02 06:20:38;;;;;;;12.82;2.50;;;;;;;12.28;100.00;101649.84;5050848;28;20024;-74
2022/10/02 06:23:10;;;;;;;15.18;2.45;;;;;;;12.25;100.00;101669.63;5112125;28;20047;-71
2022/10/02 06:25:42;;;;;;;15.15;2.35;;;;;;;12.29;100.00;101672.91;5113895;28;20031;-72
2022/10/02 06:28:17;;;;;;;19.30;2.92;;;;;;;12.34;100.00;101666.16;5113591;28;20456;-72
2022/10/02 06:30:48;;;;;;;15.95;2.10;;;;;;;12.40;100.00;101670.13;5113944;28;20122;-73
2022/10/02 06:33:22;;;;;;;13.27;2.42;;;;;;;12.45;100.00;101673.28;5114009;28;20367;-72
2022/10/02 06:36:16;;;;;;;15.40;2.47;;;;;;;12.50;100.00;101679.06;5113829;28;20093;-72
2022/10/02 06:39:03;;;;;;;19.48;2.75;;;;;;;12.53;100.00;101683.28;5113313;28;20066;-73
2022/10/02 06:41:46;;;;;;;11.85;2.42;;;;;;;12.58;100.00;101685.56;5113516;28;20073;-73
2022/10/02 06:44:20;;;;;;;16.05;2.50;;;;;;;12.63;100.00;101697.56;5113934;28;20146;-71
2022/10/02 06:47:00;;;;;;;16.08;3.17;;;;;;;12.70;100.00;101695.19;5113068;28;20468;-71
2022/10/02 06:49:49;;;;;;;16.92;2.45;;;;;;;12.76;100.00;101691.97;5112948;28;20065;-71
2022/10/02 06:52:25;;;;;;;22.65;3.33;;;;;;;12.79;100.00;101699.72;5113496;28;20028;-71
2022/10/02 06:55:12;;;;;;;12.38;2.20;;;;;;;12.84;100.00;101704.69;5113562;28;20027;-73
2022/10/02 06:57:50;;;;;;;13.43;2.53;;;;;;;12.92;100.00;101714.72;5113306;28;20364;-71
2022/10/02 07:00:17;;;;;;;13.70;2.47;;;;;;;13.00;100.00;101704.19;5113178;28;20038;-72
2022/10/02 07:02:48;;;;;;;18.75;2.17;;;;;;;13.09;100.00;101708.72;5113093;28;20032;-71
2022/10/02 07:05:52;;;;;;;14.77;3.08;;;;;;;13.18;100.00;101707.94;5111611;28;20027;-71
2022/10/02 07:08:40;;;;;;;14.20;2.55;;;;;;;13.27;100.00;101706.28;5113594;28;20055;-73
2022/10/02 07:11:21;;;;;;;14.13;3.22;;;;;;;13.33;100.00;101711.09;5113261;28;20023;-73
2022/10/02 07:13:55;;;;;;;20.17;3.08;;;;;;;13.37;100.00;101709.84;5113964;28;20016;-71
2022/10/02 07:16:28;;;;;;;17.60;2.60;;;;;;;13.40;100.00;101714.94;5113264;28;20020;-72
2022/10/02 07:19:15;;;;;;;16.75;2.95;;;;;;;13.43;100.00;101720.97;5113407;28;20421;-71
2022/10/02 07:22:01;;;;;;;18.05;2.45;;;;;;;13.43;100.00;101721.81;5113596;28;20065;-73
2022/10/02 07:24:57;;;;;;;17.60;2.55;;;;;;;13.48;100.00;101718.72;5113152;28;20039;-74
2022/10/02 07:27:36;;;;;;;14.10;2.85;;;;;;;13.50;100.00;101717.63;5113057;28;20031;-73
2022/10/02 07:30:07;;;;;;;18.60;3.05;;;;;;;13.56;100.00;101726.94;5113216;28;20110;-74
2022/10/02 07:33:05;;;;;;;17.70;3.15;;;;;;;13.60;100.00;101725.69;5113409;28;20103;-75
2022/10/02 07:35:50;;;;;;;12.32;2.63;;;;;;;13.67;100.00;101724.13;5113476;28;20032;-73
2022/10/02 07:38:41;;;;;;;13.48;2.33;;;;;;;13.75;100.00;101726.13;5113161;28;20036;-74
2022/10/02 07:41:38;;;;;;;20.15;2.90;;;;;;;13.90;100.00;101722.06;5113827;28;20047;-73
2022/10/02 07:44:17;;;;;;;10.20;2.15;;;;;;;14.04;100.00;101718.13;5113262;28;20026;-73
2022/10/02 07:46:49;;;;;;;17.70;2.30;;;;;;;14.14;100.00;101730.66;5113269;28;20028;-74
2022/10/02 07:49:21;;;;;;;12.88;2.47;;;;;;;14.19;100.00;101733.75;5113266;28;20084;-73
2022/10/02 07:52:14;;;;;;;16.00;2.28;;;;;;;14.23;100.00;101740.53;5112900;28;20376;-73
2022/10/02 07:55:07;;;;;;;11.43;2.60;;;;;;;14.26;100.00;101743.75;5113055;28;20475;-73
2022/10/02 07:58:04;;;;;;;18.83;3.38;;;;;;;14.33;100.00;101751.22;5113483;28;20118;-74
2022/10/02 08:00:35;;;;;;;16.00;2.45;;;;;;;14.39;100.00;101761.34;5115700;28;20024;-73
2022/10/02 08:03:40;;;;;;;13.90;2.70;;;;;;;14.43;100.00;101752.91;5116553;28;20028;-73
2022/10/02 08:06:06;;;;;;;14.70;2.58;;;;;;;14.55;100.00;101758.09;5116925;28;20023;-73
2022/10/02 08:08:40;;;;;;;15.07;2.47;;;;;;;14.63;100.00;101769.00;5116496;28;20108;-73
2022/10/02 08:11:05;;;;;;;18.13;2.50;;;;;;;14.71;100.00;101766.44;5116401;28;20525;-73
2022/10/02 08:13:45;;;;;;;14.10;2.30;;;;;;;14.78;100.00;101767.56;5116713;28;20043;-73
2022/10/02 08:16:13;;;;;;;14.45;2.78;;;;;;;14.86;100.00;101772.19;5116300;28;20023;-74
2022/10/02 08:18:53;;;;;;;17.63;2.85;;;;;;;14.96;100.00;101781.06;5116266;28;20038;-74
2022/10/02 08:21:21;;;;;;;15.90;2.80;;;;;;;14.98;100.00;101784.41;5116532;28;20023;-74
2022/10/02 08:24:05;;;;;;;13.77;2.55;;;;;;;14.97;100.00;101789.91;5116833;28;20094;-74
2022/10/02 08:26:38;;;;;;;11.10;2.10;;;;;;;14.94;100.00;101793.75;5116205;28;20023;-74
2022/10/02 08:29:19;;;;;;;13.85;2.75;;;;;;;14.96;100.00;101799.81;5116065;28;20059;-73
2022/10/02 08:31:45;;;;;;;15.52;2.47;;;;;;;15.02;100.00;101794.84;5116646;28;20031;-74
2022/10/02 08:34:16;;;;;;;22.75;3.47;;;;;;;15.12;100.00;101795.66;5115591;28;20399;-73
2022/10/02 08:37:06;;;;;;;15.35;3.55;;;;;;;15.33;100.00;101801.69;5116332;28;20070;-74
2022/10/02 08:39:41;;;;;;;11.70;2.30;;;;;;;15.36;100.00;101816.63;5115923;28;20035;-74
2022/10/02 08:42:31;;;;;;;17.58;2.70;;;;;;;15.40;100.00;101817.16;5115974;28;20348;-73
2022/10/02 08:45:17;;;;;;;15.93;2.60;;;;;;;15.40;100.00;101815.31;5115539;28;20098;-73
2022/10/02 08:48:01;;;;;;;11.52;2.17;;;;;;;15.51;100.00;101814.31;5115726;28;20027;-74
2022/10/02 08:50:32;;;;;;;13.02;2.20;;;;;;;15.75;100.00;101805.72;5115943;28;20092;-73
2022/10/02 08:53:24;;;;;;;13.23;2.63;;;;;;;16.06;100.00;101805.41;5115805;28;20035;-74
2022/10/02 08:56:08;;;;;;;13.27;2.97;;;;;;;16.22;98.49;101820.84;5115898;28;20519;-73
2022/10/02 08:59:03;;;;;;;17.50;3.33;;;;;;;16.31;98.27;101830.66;5115139;28;20355;-74
2022/10/02 09:01:37;;;;;;;16.05;2.40;;;;;;;16.24;96.96;101828.75;5115806;28;20024;-73
2022/10/02 09:04:27;;;;;;;19.80;2.45;;;;;;;15.98;98.55;101830.31;5115375;28;20471;-73
2022/10/02 09:06:58;;;;;;;15.07;1.95;;;;;;;16.02;92.18;101831.72;5115743;28;20030;-73
2022/10/02 09:09:57;;;;;;;8.10;1.83;;;;;;;16.25;92.51;101844.72;5115141;28;20211;-74
2022/10/02 09:12:47;;;;;;;15.07;2.65;;;;;;;16.21;92.56;101841.50;5115104;28;20036;-73
2022/10/02 09:15:23;;;;;;;12.45;2.35;;;;;;;16.52;90.96;101854.53;5115312;28;20034;-72
2022/10/02 09:18:37;;;;;;;14.88;3.65;;;;;;;16.92;86.35;101855.09;5115096;28;20065;-72
2022/10/02 09:21:18;;;;;;;15.43;2.13;;;;;;;17.51;82.79;101847.22;5109971;28;20051;-72
2022/10/02 09:23:51;;;;;;;13.07;2.53;;;;;;;18.44;76.63;101853.63;5115670;28;20066;-72
2022/10/02 09:26:59;;;;;;;13.90;2.28;;;;;;;19.62;70.68;101849.63;5114826;28;20088;-72
2022/10/02 09:29:35;;;;;;;13.75;2.72;;;;;;;20.56;67.40;101852.34;5115180;28;20106;-72
2022/10/02 09:32:08;;;;;;;13.55;2.78;;;;;;;21.38;59.39;101856.16;5114599;28;20387;-73
2022/10/02 09:34:36;;;;;;;11.40;2.17;;;;;;;21.52;59.70;101862.66;5114823;28;20024;-72
2022/10/02 09:37:07;;;;;;;13.48;2.45;;;;;;;20.95;62.97;101851.38;5114776;28;20039;-75
2022/10/02 09:40:07;;;;;;;11.25;2.20;;;;;;;19.99;66.67;101867.03;5114930;28;20028;-73
2022/10/02 09:42:53;;;;;;;19.42;3.70;;;;;;;19.46;66.85;101872.94;5114597;28;20524;-73
2022/10/02 09:45:25;;;;;;;13.68;2.28;;;;;;;18.62;71.75;101877.72;5114374;28;20031;-73
2022/10/02 09:48:19;;;;;;;16.95;2.30;;;;;;;17.75;77.68;101873.41;5114932;28;20118;-72
2022/10/02 09:51:26;;;;;;;14.23;2.95;;;;;;;19.01;72.99;101869.81;5115043;28;20031;-73
2022/10/02 09:54:05;;;;;;;14.93;2.33;;;;;;;20.42;63.50;101870.16;5115009;28;20031;-73
2022/10/02 09:56:47;;;;;;;13.25;2.80;;;;;;;21.29;58.63;101871.66;5114337;28;20123;-72
2022/10/02 09:59:25;;;;;;;12.40;2.47;;;;;;;20.44;61.59;101879.78;5114377;28;20055;-73
2022/10/02 10:02:22;;;;;;;14.23;2.63;;;;;;;19.22;65.81;101889.19;5114308;28;20069;-72
2022/10/02 10:05:09;;;;;;;14.63;2.53;;;;;;;18.52;66.74;101895.91;5079820;28;20035;-73
2022/10/02 10:07:53;;;;;;;21.88;3.38;;;;;;;18.08;72.05;101899.66;5114627;28;20115;-73
2022/10/02 10:10:18;;;;;;;17.80;2.88;;;;;;;18.30;73.51;101901.75;5113891;28;20069;-72
2022/10/02 10:13:31;;;;;;;16.15;2.50;;;;;;;18.84;71.09;101903.19;5114404;28;20032;-73
2022/10/02 10:16:28;;;;;;;14.18;2.67;;;;;;;19.12;67.28;101900.16;5114647;28;20023;-73
2022/10/02 10:19:32;;;;;;;16.92;3.05;;;;;;;19.26;68.58;101912.09;5111944;28;20127;-73
2022/10/02 10:22:30;;;;;;;11.90;2.70;;;;;;;19.15;68.00;101910.59;5113880;28;20073;-73
2022/10/02 10:25:13;;;;;;;16.95;3.17;;;;;;;18.96;70.42;101917.19;5114597;28;20413;-77
2022/10/02 10:27:53;;;;;;;15.80;2.70;;;;;;;18.69;66.01;101921.88;5114038;28;20134;-75
2022/10/02 10:30:37;;;;;;;17.53;2.97;;;;;;;18.74;70.10;101926.75;5113825;28;20115;-72
2022/10/02 10:33:33;;;;;;;16.73;2.80;;;;;;;18.64;68.46;101921.50;5113768;28;20111;-77
2022/10/02 10:40:01;;;;;;;15.10;2.50;;;;;;;18.31;73.48;101933.06;5091106;28;20119;-73
2022/10/02 10:42:53;;;;;;;19.33;3.08;;;;;;;18.11;71.88;101943.25;5113342;28;20058;-73
2022/10/02 10:45:40;;;;;;;11.90;2.50;;;;;;;17.80;71.77;101942.91;5113885;28;20485;-74
2022/10/02 10:48:23;;;;;;;10.98;1.98;;;;;;;17.69;75.26;101935.09;5113945;28;20024;-73
2022/10/02 10:51:15;;;;;;;11.10;2.47;;;;;;;17.50;75.87;101934.31;5112309;28;20122;-74
2022/10/02 10:53:40;;;;;;;;;;;;;;;17.47;77.97;101944.56;5113895;28;20069;-74
2022/10/02 10:56:18;;;;;;;13.97;2.70;;;;;;;17.53;78.24;101942.06;5113949;28;19912;-74
2022/10/02 10:59:17;;;;;;;20.00;2.53;;;;;;;17.47;77.86;101944.56;5113577;28;20265;-74
2022/10/02 11:02:01;;;;;;;13.18;2.83;;;;;;;17.35;76.07;101946.66;5113176;28;20015;-74
2022/10/02 11:04:43;;;;;;;13.60;2.55;;;;;;;17.25;78.92;101950.28;5113756;28;20077;-74
2022/10/02 11:07:15;;;;;;;9.77;2.20;;;;;;;17.09;79.65;101956.38;5113467;28;20070;-75
2022/10/02 11:09:46;;;;;;;14.23;2.85;;;;;;;16.90;81.33;101962.75;5113163;28;20482;-75
2022/10/02 11:12:27;;;;;;;14.80;2.67;;;;;;;17.10;85.51;101963.44;5111984;28;20368;-75
2022/10/02 11:15:34;;;;;;;18.60;2.67;;;;;;;17.45;78.32;101967.09;5113998;28;20036;-75
2022/10/02 11:18:18;;;;;;;9.98;2.35;;;;;;;17.46;76.00;101970.59;5114233;28;20107;-73
2022/10/02 11:21:09;;;;;;;15.25;2.80;;;;;;;17.51;79.42;101968.31;5113313;28;20130;-74
2022/10/02 11:23:49;;;;;;;15.18;2.45;;;;;;;17.63;80.56;101976.97;5113065;28;20056;-74
2022/10/02 11:26:33;;;;;;;15.05;2.50;;;;;;;17.60;82.46;101972.75;5113337;28;20059;-73
2022/10/02 11:29:08;;;;;;;13.43;2.05;;;;;;;17.39;79.13;101972.22;5112612;28;20115;-73
2022/10/02 11:31:45;;;;;;;17.40;3.00;;;;;;;17.22;81.34;101971.28;5113593;28;20039;-73
2022/10/02 11:34:56;;;;;;;11.52;2.83;;;;;;;17.09;79.05;101977.91;5113140;28;20031;-74
2022/10/02 11:37:49;;;;;;;10.57;2.25;;;;;;;16.79;78.67;101983.59;5084969;28;20043;-73
2022/10/02 11:41:01;;;;;;;13.40;2.88;;;;;;;16.51;78.03;101980.94;5117491;28;20024;-73
2022/10/02 11:44:00;;;;;;;15.13;3.20;;;;;;;16.22;80.55;101988.16;5116847;28;20019;-74
2022/10/02 11:46:51;;;;;;;14.95;2.67;;;;;;;15.99;84.03;101989.56;5116962;28;20038;-74
2022/10/02 11:49:41;;;;;;;18.73;2.50;;;;;;;15.88;85.23;101987.88;5117183;28;20051;-74
2022/10/02 11:52:32;;;;;;;18.05;3.25;;;;;;;16.05;87.19;101988.97;5116413;28;20035;-74
2022/10/02 11:55:17;;;;;;;14.45;2.67;;;;;;;16.56;83.16;101984.03;5109167;28;20059;-73
2022/10/02 11:58:11;;;;;;;15.32;2.13;;;;;;;16.94;81.77;101984.78;5116706;28;20050;-73
2022/10/02 12:01:16;;;;;;;14.93;2.63;;;;;;;17.01;77.53;102001.16;5107867;28;20039;-73
2022/10/02 12:03:52;;;;;;;16.80;2.75;;;;;;;16.84;78.88;101998.28;5093119;28;20223;-74
2022/10/02 12:06:20;;;;;;;13.88;2.95;;;;;;;16.62;79.62;102004.94;5115241;28;20028;-75
2022/10/02 12:09:12;;;;;;;14.73;2.90;;;;;;;16.39;79.76;102010.72;5116179;28;20066;-74
2022/10/02 12:11:47;;;;;;;13.93;3.03;;;;;;;16.41;82.41;102015.94;5115675;28;20455;-73
2022/10/02 12:14:21;;;;;;;13.75;2.70;;;;;;;16.58;81.37;102003.53;5116882;28;20202;-75
2022/10/02 12:17:12;;;;;;;20.95;3.92;;;;;;;16.96;82.22;102008.81;5114721;28;20032;-73
2022/10/02 12:26:57;;;;;;;21.77;2.72;;;;;;;17.37;80.84;102018.13;5116046;28;20023;-73
2022/10/02 12:29:01;;;;;;;13.77;2.60;;;;;;;17.97;73.43;102022.81;5115679;28;20042;-75